Time;durP1;ratioP1;P1;durP2;ratioP2;P2;SDS_P1;SDS_P2;PMS_P1;PMS_P2;Temp;Humidity;BMP_temperature;BMP_pressure;BME280_temperature;BME280_humidity;BME280_pressure;Samples;Min_cycle;Max_cycle;Signal;HPM_P1;HPM_P2
2020/12/26 00:00:13;;;;;;;7.00;3.58;;;;;;;;;;5114809;28;20080;-76
2020/12/26 00:02:39;;;;;;;5.82;3.20;;;;;;;;;;5114695;28;20035;-78
2020/12/26 00:05:05;;;;;;;5.60;2.90;;;;;;;;;;5114632;28;20379;-77
2020/12/26 00:07:31;;;;;;;5.65;2.75;;;;;;;;;;5095876;28;20019;-76
2020/12/26 00:09:57;;;;;;;5.38;2.80;;;;;;;;;;5114151;28;20019;-75
2020/12/26 00:12:23;;;;;;;4.63;2.65;;;;;;;;;;5096198;28;20031;-75
2020/12/26 00:14:49;;;;;;;7.30;3.00;;;;;;;;;;5093766;28;20500;-76
2020/12/26 00:17:16;;;;;;;6.88;2.88;;;;;;;;;;5096130;28;20526;-75
2020/12/26 00:19:42;;;;;;;6.18;2.92;;;;;;;;;;5095326;28;20046;-74
2020/12/26 00:22:08;;;;;;;6.05;2.90;;;;;;;;;;5103713;28;20378;-72
2020/12/26 00:24:34;;;;;;;6.38;3.05;;;;;;;;;;5075541;28;20466;-72
2020/12/26 00:27:00;;;;;;;6.32;3.20;;;;;;;;;;5093513;28;20035;-73
2020/12/26 00:29:26;;;;;;;5.53;3.10;;;;;;;;;;5075816;28;20020;-77
2020/12/26 00:31:52;;;;;;;5.32;3.03;;;;;;;;;;5093433;28;20097;-76
2020/12/26 00:34:18;;;;;;;5.25;2.80;;;;;;;;;;5093309;28;20093;-76
2020/12/26 00:36:44;;;;;;;5.55;2.88;;;;;;;;;;5093149;28;20028;-75
2020/12/26 00:39:10;;;;;;;5.53;3.13;;;;;;;;;;5113626;28;20478;-72
2020/12/26 00:41:36;;;;;;;5.30;3.05;;;;;;;;;;5113674;28;20024;-73
2020/12/26 00:44:03;;;;;;;4.90;2.85;;;;;;;;;;5112553;28;20019;-72
2020/12/26 00:46:29;;;;;;;9.27;3.42;;;;;;;;;;5076467;28;20024;-74
2020/12/26 00:48:55;;;;;;;7.25;3.17;;;;;;;;;;5074960;28;20550;-73
2020/12/26 00:51:21;;;;;;;5.10;3.00;;;;;;;;;;5074993;28;20024;-75
2020/12/26 00:53:47;;;;;;;5.60;3.10;;;;;;;;;;5093181;28;20031;-73
2020/12/26 00:56:13;;;;;;;5.43;3.15;;;;;;;;;;5092903;28;20028;-75
2020/12/26 00:58:39;;;;;;;4.78;2.65;;;;;;;;;;5108593;28;20118;-77
2020/12/26 01:01:05;;;;;;;5.85;3.05;;;;;;;;;;5113249;28;20024;-73
2020/12/26 01:03:32;;;;;;;6.88;3.22;;;;;;;;;;5083308;28;20066;-76
2020/12/26 01:05:58;;;;;;;7.55;3.03;;;;;;;;;;5113468;28;20015;-83
2020/12/26 01:08:24;;;;;;;5.68;3.35;;;;;;;;;;5113710;28;20027;-77
2020/12/26 01:10:50;;;;;;;6.85;3.05;;;;;;;;;;5094995;28;20043;-75
2020/12/26 01:13:18;;;;;;;8.35;3.15;;;;;;;;;;5114831;28;20023;-75
2020/12/26 01:15:44;;;;;;;8.48;3.47;;;;;;;;;;5114864;28;20022;-76
2020/12/26 01:18:10;;;;;;;6.50;3.08;;;;;;;;;;5114994;28;20066;-76
2020/12/26 01:20:36;;;;;;;9.40;3.13;;;;;;;;;;5114879;28;20526;-75
2020/12/26 01:23:02;;;;;;;5.88;3.15;;;;;;;;;;5114720;28;20084;-80
2020/12/26 01:25:28;;;;;;;6.15;2.72;;;;;;;;;;5096063;28;20034;-75
2020/12/26 01:27:54;;;;;;;7.47;3.13;;;;;;;;;;5096532;28;20016;-75
2020/12/26 01:30:20;;;;;;;8.40;3.17;;;;;;;;;;5096311;28;20106;-92
2020/12/26 01:32:46;;;;;;;5.53;2.85;;;;;;;;;;5114544;28;20394;-75
2020/12/26 01:35:12;;;;;;;9.05;2.92;;;;;;;;;;5096611;28;20020;-75
2020/12/26 01:37:38;;;;;;;6.55;3.25;;;;;;;;;;5114616;28;20036;-75
2020/12/26 01:40:10;;;;;;;7.90;3.28;;;;;;;;;;5096311;28;20019;-78
2020/12/26 01:42:36;;;;;;;6.33;3.30;;;;;;;;;;5114440;28;20072;-75
2020/12/26 01:45:02;;;;;;;7.63;3.40;;;;;;;;;;5114178;28;20011;-76
2020/12/26 01:47:28;;;;;;;6.22;3.40;;;;;;;;;;5114211;28;20463;-75
2020/12/26 01:49:54;;;;;;;5.57;2.97;;;;;;;;;;5114117;28;20042;-75
2020/12/26 01:52:20;;;;;;;5.90;3.20;;;;;;;;;;5114405;28;20098;-91
2020/12/26 01:54:46;;;;;;;9.10;3.08;;;;;;;;;;5113262;28;20057;-80
2020/12/26 01:57:13;;;;;;;6.03;3.17;;;;;;;;;;5113939;28;20034;-75
2020/12/26 01:59:39;;;;;;;6.40;3.22;;;;;;;;;;5113870;28;20027;-75
2020/12/26 02:02:09;;;;;;;5.50;2.92;;;;;;;;;;5113909;28;20031;-75
2020/12/26 02:04:35;;;;;;;5.63;2.88;;;;;;;;;;5113800;28;20023;-75
2020/12/26 02:07:02;;;;;;;6.30;3.75;;;;;;;;;;5095743;28;20077;-75
2020/12/26 02:09:29;;;;;;;6.30;3.30;;;;;;;;;;5095312;28;20023;-75
2020/12/26 02:11:55;;;;;;;7.47;3.20;;;;;;;;;;5095013;28;20506;-82
2020/12/26 02:14:22;;;;;;;11.55;2.88;;;;;;;;;;5117575;27;20020;-75
2020/12/26 02:16:51;;;;;;;4.95;2.90;;;;;;;;;;5120315;27;20040;-75
2020/12/26 02:19:19;;;;;;;6.78;3.03;;;;;;;;;;5101554;27;20043;-83
2020/12/26 02:21:45;;;;;;;9.95;3.00;;;;;;;;;;5099896;28;20027;-82
2020/12/26 02:24:11;;;;;;;9.43;3.60;;;;;;;;;;5096881;27;20470;-81
2020/12/26 02:26:37;;;;;;;5.05;2.88;;;;;;;;;;5101096;28;20115;-85
2020/12/26 02:29:04;;;;;;;6.28;3.05;;;;;;;;;;5120014;27;20482;-76
2020/12/26 02:31:31;;;;;;;6.72;3.00;;;;;;;;;;5105474;28;20044;-84
2020/12/26 02:33:57;;;;;;;5.97;3.05;;;;;;;;;;5119097;27;20026;-75
2020/12/26 02:36:23;;;;;;;5.03;2.83;;;;;;;;;;5095184;28;20027;-79
2020/12/26 02:38:49;;;;;;;5.60;2.97;;;;;;;;;;5094664;28;20028;-75
2020/12/26 02:41:15;;;;;;;6.80;3.15;;;;;;;;;;5113396;28;20113;-74
2020/12/26 02:43:41;;;;;;;6.68;3.35;;;;;;;;;;5095174;28;20437;-75
2020/12/26 02:46:08;;;;;;;7.72;3.00;;;;;;;;;;5113026;28;20016;-74
2020/12/26 02:48:34;;;;;;;5.22;3.10;;;;;;;;;;5094456;28;20027;-75
2020/12/26 02:51:00;;;;;;;5.38;3.22;;;;;;;;;;5094513;28;20016;-74
2020/12/26 02:53:26;;;;;;;7.85;3.30;;;;;;;;;;5113012;28;20026;-76
2020/12/26 02:55:52;;;;;;;7.47;3.55;;;;;;;;;;5095135;28;20020;-83
2020/12/26 02:58:19;;;;;;;6.60;4.00;;;;;;;;;;5099223;28;20051;-75
2020/12/26 03:00:45;;;;;;;8.35;3.60;;;;;;;;;;5113472;28;20467;-79
2020/12/26 03:03:11;;;;;;;5.95;2.95;;;;;;;;;;5095215;28;20028;-75
2020/12/26 03:05:37;;;;;;;5.85;3.03;;;;;;;;;;5113549;28;20008;-75
2020/12/26 03:08:03;;;;;;;8.73;3.53;;;;;;;;;;5117305;28;20072;-75
2020/12/26 03:10:29;;;;;;;5.30;2.97;;;;;;;;;;5110522;28;20026;-75
2020/12/26 03:12:56;;;;;;;7.50;3.50;;;;;;;;;;5116943;28;20470;-75
2020/12/26 03:15:22;;;;;;;5.55;2.88;;;;;;;;;;5098785;28;20530;-86
2020/12/26 03:17:48;;;;;;;6.75;3.00;;;;;;;;;;5079388;28;20066;-75
2020/12/26 03:20:14;;;;;;;5.93;3.17;;;;;;;;;;5076465;28;20029;-84
2020/12/26 03:22:41;;;;;;;6.50;2.50;;;;;;;;;;5076379;28;20059;-75
2020/12/26 03:25:07;;;;;;;6.32;3.28;;;;;;;;;;5076526;28;20016;-76
2020/12/26 03:27:33;;;;;;;5.40;2.85;;;;;;;;;;5075221;28;20028;-75
2020/12/26 03:29:59;;;;;;;8.13;3.35;;;;;;;;;;5075052;28;20383;-74
2020/12/26 03:32:25;;;;;;;7.85;3.28;;;;;;;;;;5076095;28;20028;-74
2020/12/26 03:34:51;;;;;;;5.80;3.20;;;;;;;;;;5076118;28;20537;-74
2020/12/26 03:37:17;;;;;;;6.72;2.85;;;;;;;;;;5076047;28;20028;-74
2020/12/26 03:39:43;;;;;;;5.60;3.00;;;;;;;;;;5076066;28;20063;-74
2020/12/26 03:42:11;;;;;;;6.22;3.35;;;;;;;;;;5076003;28;20020;-74
2020/12/26 03:44:37;;;;;;;6.07;3.28;;;;;;;;;;5075922;28;20051;-75
2020/12/26 03:47:08;;;;;;;6.07;2.75;;;;;;;;;;5074395;28;20017;-74
2020/12/26 03:49:34;;;;;;;5.43;3.13;;;;;;;;;;5075456;28;20017;-75
2020/12/26 03:52:00;;;;;;;4.57;2.65;;;;;;;;;;5074564;28;20025;-74
2020/12/26 03:54:26;;;;;;;5.55;2.80;;;;;;;;;;5076052;28;20028;-74
2020/12/26 03:56:53;;;;;;;5.43;2.90;;;;;;;;;;5075731;28;20028;-75
2020/12/26 03:59:19;;;;;;;4.60;2.70;;;;;;;;;;5074374;28;20510;-75
2020/12/26 04:01:45;;;;;;;5.68;2.80;;;;;;;;;;5075606;28;20024;-75
2020/12/26 04:04:14;;;;;;;5.25;2.60;;;;;;;;;;5075757;28;20024;-75
2020/12/26 04:06:42;;;;;;;4.78;2.38;;;;;;;;;;5075544;28;20027;-75
2020/12/26 04:09:08;;;;;;;6.28;2.90;;;;;;;;;;5074183;28;20044;-75
2020/12/26 04:11:34;;;;;;;4.10;2.30;;;;;;;;;;5075539;28;20100;-76
2020/12/26 04:14:00;;;;;;;6.10;2.80;;;;;;;;;;5075492;28;20016;-74
2020/12/26 04:16:27;;;;;;;6.55;2.50;;;;;;;;;;5074010;28;20044;-75
2020/12/26 04:18:53;;;;;;;6.10;2.60;;;;;;;;;;5073080;28;20081;-75
2020/12/26 04:21:23;;;;;;;5.32;2.88;;;;;;;;;;5074196;28;20021;-75
2020/12/26 04:23:49;;;;;;;6.82;2.40;;;;;;;;;;5075415;28;20036;-74
2020/12/26 04:26:15;;;;;;;4.70;2.25;;;;;;;;;;5075418;28;20024;-74
2020/12/26 04:28:41;;;;;;;6.60;2.50;;;;;;;;;;5075258;28;20020;-75
2020/12/26 04:31:08;;;;;;;5.05;2.60;;;;;;;;;;5075101;28;20024;-75
2020/12/26 04:33:34;;;;;;;5.63;2.40;;;;;;;;;;5075025;28;20027;-75
2020/12/26 04:36:00;;;;;;;4.15;2.35;;;;;;;;;;5074986;28;20463;-75
2020/12/26 04:38:26;;;;;;;5.20;2.50;;;;;;;;;;5073479;28;20071;-75
2020/12/26 04:40:52;;;;;;;5.30;2.63;;;;;;;;;;5074921;28;20070;-74
2020/12/26 04:43:18;;;;;;;4.20;2.30;;;;;;;;;;5073696;28;20387;-75
2020/12/26 04:45:44;;;;;;;4.97;2.22;;;;;;;;;;5075025;28;20028;-75
2020/12/26 04:48:14;;;;;;;4.60;2.33;;;;;;;;;;5074718;28;20028;-75
2020/12/26 04:50:45;;;;;;;5.22;2.25;;;;;;;;;;5074748;28;20025;-75
2020/12/26 04:53:13;;;;;;;4.43;2.33;;;;;;;;;;5074821;28;20024;-76
2020/12/26 04:55:40;;;;;;;5.43;2.20;;;;;;;;;;5074886;28;20103;-74
2020/12/26 04:58:10;;;;;;;4.65;2.15;;;;;;;;;;5074462;28;20028;-75
2020/12/26 05:00:37;;;;;;;4.28;2.20;;;;;;;;;;5073323;28;20024;-81
2020/12/26 05:03:08;;;;;;;4.75;2.40;;;;;;;;;;5074535;28;20052;-74
2020/12/26 05:05:34;;;;;;;4.25;1.98;;;;;;;;;;5073250;28;20021;-75
2020/12/26 05:08:14;;;;;;;4.00;2.17;;;;;;;;;;5073217;28;20036;-74
2020/12/26 05:10:40;;;;;;;4.03;1.88;;;;;;;;;;5070686;28;20021;-74
2020/12/26 05:13:07;;;;;;;4.25;1.92;;;;;;;;;;5073100;28;20028;-75
2020/12/26 05:15:34;;;;;;;4.38;2.05;;;;;;;;;;5072964;28;20055;-75
2020/12/26 05:18:01;;;;;;;5.15;2.00;;;;;;;;;;5109668;28;20066;-74
2020/12/26 05:20:27;;;;;;;3.75;1.77;;;;;;;;;;5096527;28;20439;-74
2020/12/26 05:23:12;;;;;;;4.18;2.00;;;;;;;;;;5114567;28;20528;-74
2020/12/26 05:25:39;;;;;;;5.03;2.10;;;;;;;;;;5114671;28;20387;-75
2020/12/26 05:28:12;;;;;;;4.85;1.85;;;;;;;;;;5114459;28;20042;-75
2020/12/26 05:30:42;;;;;;;4.10;1.83;;;;;;;;;;5096277;28;20026;-75
2020/12/26 05:33:09;;;;;;;3.88;1.77;;;;;;;;;;5114435;28;20543;-75
2020/12/26 05:35:38;;;;;;;3.65;1.80;;;;;;;;;;5114495;28;20023;-75
2020/12/26 05:38:15;;;;;;;5.22;1.50;;;;;;;;;;5114397;28;20067;-74
2020/12/26 05:40:44;;;;;;;4.63;1.98;;;;;;;;;;5114460;28;20073;-75
2020/12/26 05:43:11;;;;;;;6.35;1.77;;;;;;;;;;5114568;28;20015;-74
2020/12/26 05:45:41;;;;;;;3.60;1.73;;;;;;;;;;5114307;28;20500;-75
2020/12/26 05:48:10;;;;;;;2.60;1.38;;;;;;;;;;5114119;28;20020;-75
2020/12/26 05:50:37;;;;;;;5.75;1.42;;;;;;;;;;5114248;28;20095;-75
2020/12/26 05:53:03;;;;;;;5.18;1.98;;;;;;;;;;5114212;28;20461;-74
2020/12/26 05:55:42;;;;;;;4.40;1.80;;;;;;;;;;5113972;28;20462;-74
2020/12/26 05:58:09;;;;;;;3.85;1.50;;;;;;;;;;5113958;28;20095;-75
2020/12/26 06:00:39;;;;;;;3.90;1.65;;;;;;;;;;5114107;28;20018;-75
2020/12/26 06:03:20;;;;;;;3.13;1.40;;;;;;;;;;5114191;28;20483;-75
2020/12/26 06:05:48;;;;;;;4.18;1.73;;;;;;;;;;5114055;28;20386;-74
2020/12/26 06:08:15;;;;;;;4.82;1.70;;;;;;;;;;5113816;28;20027;-75
2020/12/26 06:10:42;;;;;;;4.15;1.70;;;;;;;;;;5095885;28;20016;-75
2020/12/26 06:13:08;;;;;;;7.00;1.80;;;;;;;;;;5114045;28;20049;-74
2020/12/26 06:15:36;;;;;;;4.03;1.75;;;;;;;;;;5113896;28;20090;-74
2020/12/26 06:18:06;;;;;;;3.83;1.70;;;;;;;;;;5113344;28;20047;-74
2020/12/26 06:20:32;;;;;;;4.68;1.80;;;;;;;;;;5113742;28;20030;-74
2020/12/26 06:22:59;;;;;;;3.00;1.33;;;;;;;;;;5113623;28;20022;-74
2020/12/26 06:25:25;;;;;;;4.00;1.30;;;;;;;;;;5095300;28;20024;-74
2020/12/26 06:28:06;;;;;;;3.38;1.50;;;;;;;;;;5113691;28;20470;-74
2020/12/26 06:30:32;;;;;;;2.90;1.20;;;;;;;;;;5114669;27;20378;-74
2020/12/26 06:32:58;;;;;;;2.78;1.30;;;;;;;;;;5132592;27;20086;-74
2020/12/26 06:35:24;;;;;;;3.42;1.45;;;;;;;;;;5114042;28;20050;-75
2020/12/26 06:38:09;;;;;;;4.60;1.63;;;;;;;;;;5115478;27;20063;-75
2020/12/26 06:40:35;;;;;;;9.85;1.67;;;;;;;;;;5115104;28;20034;-85
2020/12/26 06:43:01;;;;;;;4.75;1.35;;;;;;;;;;5134166;28;20017;-75
2020/12/26 06:45:30;;;;;;;3.17;1.40;;;;;;;;;;5134120;28;20046;-81
2020/12/26 06:47:56;;;;;;;4.55;1.48;;;;;;;;;;5115623;28;20027;-75
2020/12/26 06:50:29;;;;;;;10.45;1.40;;;;;;;;;;5133910;28;20024;-75
2020/12/26 06:52:56;;;;;;;4.45;1.58;;;;;;;;;;5134070;28;20023;-75
2020/12/26 06:55:40;;;;;;;3.17;1.50;;;;;;;;;;5115560;28;20035;-75
2020/12/26 06:58:09;;;;;;;3.70;1.35;;;;;;;;;;5132859;28;20039;-75
2020/12/26 07:00:35;;;;;;;5.57;1.60;;;;;;;;;;5115356;28;20020;-75
2020/12/26 07:03:21;;;;;;;3.13;1.45;;;;;;;;;;5115801;28;20423;-75
2020/12/26 07:05:48;;;;;;;4.57;1.30;;;;;;;;;;5115458;28;20110;-86
2020/12/26 07:08:30;;;;;;;3.20;1.35;;;;;;;;;;5133724;28;20037;-75
2020/12/26 07:10:58;;;;;;;3.35;1.42;;;;;;;;;;5103802;28;20017;-74
2020/12/26 07:13:42;;;;;;;3.92;1.38;;;;;;;;;;5113240;28;20095;-74
2020/12/26 07:16:28;;;;;;;3.30;1.40;;;;;;;;;;5094864;28;20081;-75
2020/12/26 07:18:54;;;;;;;3.25;1.20;;;;;;;;;;5098766;28;20062;-74
2020/12/26 07:21:21;;;;;;;2.90;1.30;;;;;;;;;;5113097;28;20038;-75
2020/12/26 07:23:50;;;;;;;3.00;1.15;;;;;;;;;;5112742;28;20016;-75
2020/12/26 07:26:18;;;;;;;5.18;1.33;;;;;;;;;;5113036;28;20363;-76
2020/12/26 07:28:44;;;;;;;3.03;1.27;;;;;;;;;;5112978;28;20019;-74
2020/12/26 07:31:17;;;;;;;2.13;1.10;;;;;;;;;;5094759;28;20020;-85
2020/12/26 07:33:43;;;;;;;3.90;1.10;;;;;;;;;;5094925;28;20416;-85
2020/12/26 07:36:19;;;;;;;5.25;1.33;;;;;;;;;;5095101;28;20081;-78
2020/12/26 07:38:45;;;;;;;2.92;1.10;;;;;;;;;;5094630;28;20093;-82
2020/12/26 07:41:11;;;;;;;3.22;1.20;;;;;;;;;;5094796;28;20053;-75
2020/12/26 07:43:38;;;;;;;3.75;1.20;;;;;;;;;;5112979;28;20099;-76
2020/12/26 07:46:04;;;;;;;3.70;1.27;;;;;;;;;;5113045;28;20022;-79
2020/12/26 07:48:30;;;;;;;2.75;1.30;;;;;;;;;;5112737;28;20031;-75
2020/12/26 07:50:56;;;;;;;3.92;1.35;;;;;;;;;;5094424;28;20024;-75
2020/12/26 07:53:22;;;;;;;3.38;1.10;;;;;;;;;;5114053;28;20023;-75
2020/12/26 07:55:48;;;;;;;5.45;1.30;;;;;;;;;;5097801;28;20034;-75
2020/12/26 07:58:16;;;;;;;2.85;1.10;;;;;;;;;;5116276;28;20028;-76
2020/12/26 08:00:43;;;;;;;25.33;1.83;;;;;;;;;;5112008;28;20054;-76
2020/12/26 08:03:10;;;;;;;4.03;1.20;;;;;;;;;;5114803;28;20030;-78
2020/12/26 08:05:38;;;;;;;6.75;1.38;;;;;;;;;;5115027;28;20040;-83
2020/12/26 08:08:13;;;;;;;8.75;1.33;;;;;;;;;;5103082;28;20106;-74
2020/12/26 08:10:39;;;;;;;6.57;1.20;;;;;;;;;;5095790;28;20486;-80
2020/12/26 08:13:05;;;;;;;3.75;1.20;;;;;;;;;;5114934;28;20081;-72
2020/12/26 08:15:32;;;;;;;5.05;1.10;;;;;;;;;;5114323;28;20027;-70
2020/12/26 08:17:59;;;;;;;5.35;1.30;;;;;;;;;;5095646;28;20078;-72
2020/12/26 08:20:26;;;;;;;11.35;1.30;;;;;;;;;;5114104;28;20582;-75
2020/12/26 08:22:52;;;;;;;5.22;1.50;;;;;;;;;;5095885;28;20031;-71
2020/12/26 08:25:19;;;;;;;3.20;1.25;;;;;;;;;;5113445;28;20174;-71
2020/12/26 08:27:45;;;;;;;3.33;1.27;;;;;;;;;;5114130;28;20035;-71
2020/12/26 08:30:16;;;;;;;6.40;1.40;;;;;;;;;;5097450;27;20024;-70
2020/12/26 08:32:55;;;;;;;9.20;1.60;;;;;;;;;;5133173;27;20026;-71
2020/12/26 08:35:21;;;;;;;5.65;1.48;;;;;;;;;;5107171;28;20111;-72
2020/12/26 08:37:52;;;;;;;4.97;1.33;;;;;;;;;;5094733;28;20114;-72
2020/12/26 08:40:19;;;;;;;2.85;1.20;;;;;;;;;;5113212;28;20023;-71
2020/12/26 08:42:45;;;;;;;3.55;1.00;;;;;;;;;;5111574;28;20024;-71
2020/12/26 08:45:23;;;;;;;2.72;0.98;;;;;;;;;;5113077;28;20019;-70
2020/12/26 08:47:50;;;;;;;5.07;1.25;;;;;;;;;;5092354;28;20022;-72
2020/12/26 08:50:16;;;;;;;2.63;0.85;;;;;;;;;;5112931;28;20035;-71
2020/12/26 08:52:44;;;;;;;3.10;0.90;;;;;;;;;;5112905;28;20024;-71
2020/12/26 08:55:10;;;;;;;2.78;1.33;;;;;;;;;;5108709;28;20022;-73
2020/12/26 08:57:37;;;;;;;2.33;1.15;;;;;;;;;;5112849;28;20054;-72
2020/12/26 09:00:16;;;;;;;4.20;1.00;;;;;;;;;;5111011;28;20092;-74
2020/12/26 09:02:46;;;;;;;1.58;0.75;;;;;;;;;;5094621;28;20028;-73
2020/12/26 09:05:25;;;;;;;3.65;1.10;;;;;;;;;;5112162;28;20024;-74
2020/12/26 09:08:20;;;;;;;2.25;0.90;;;;;;;;;;5092149;28;20035;-72
2020/12/26 09:10:56;;;;;;;1.83;0.90;;;;;;;;;;5091187;28;20119;-71
2020/12/26 09:13:29;;;;;;;2.50;1.00;;;;;;;;;;5094291;28;20033;-73
2020/12/26 09:15:55;;;;;;;;;;;;;;;;;;5110927;28;20406;-75
2020/12/26 09:18:28;;;;;;;4.45;0.90;;;;;;;;;;5112459;28;19912;-71
2020/12/26 09:20:55;;;;;;;1.77;0.80;;;;;;;;;;5110800;28;20125;-71
2020/12/26 09:23:22;;;;;;;1.58;0.73;;;;;;;;;;5094357;28;20019;-72
2020/12/26 09:25:49;;;;;;;1.60;0.73;;;;;;;;;;5109772;28;20092;-72
2020/12/26 09:28:15;;;;;;;1.58;0.60;;;;;;;;;;5093927;28;20027;-72
2020/12/26 09:30:41;;;;;;;1.55;0.82;;;;;;;;;;5094015;28;20008;-74
2020/12/26 09:33:08;;;;;;;5.68;1.00;;;;;;;;;;5094026;28;20055;-73
2020/12/26 09:35:35;;;;;;;1.65;0.70;;;;;;;;;;5094175;28;20016;-73
2020/12/26 09:38:01;;;;;;;6.32;1.10;;;;;;;;;;5094082;28;20023;-72
2020/12/26 09:40:27;;;;;;;4.85;0.98;;;;;;;;;;5094033;28;20024;-73
2020/12/26 09:42:53;;;;;;;4.90;0.90;;;;;;;;;;5112355;28;20104;-72
2020/12/26 09:45:19;;;;;;;1.67;0.75;;;;;;;;;;5092004;28;20084;-71
2020/12/26 09:47:45;;;;;;;3.38;0.80;;;;;;;;;;5107565;27;20030;-73
2020/12/26 09:50:12;;;;;;;2.45;0.95;;;;;;;;;;5112046;27;20061;-73
2020/12/26 09:52:38;;;;;;;8.57;1.05;;;;;;;;;;5093996;28;20064;-72
2020/12/26 09:55:07;;;;;;;3.03;1.00;;;;;;;;;;5110862;28;20016;-74
2020/12/26 09:57:33;;;;;;;5.13;1.00;;;;;;;;;;5112040;28;20546;-74
2020/12/26 10:00:00;;;;;;;10.80;0.85;;;;;;;;;;5093822;28;20076;-72
2020/12/26 10:02:26;;;;;;;3.50;0.70;;;;;;;;;;5093848;28;20050;-71
2020/12/26 10:04:52;;;;;;;2.95;0.82;;;;;;;;;;5112096;28;20048;-72
2020/12/26 10:07:21;;;;;;;3.28;0.82;;;;;;;;;;5093927;28;20506;-72
2020/12/26 10:09:47;;;;;;;3.63;1.20;;;;;;;;;;5108986;28;20011;-73
2020/12/26 10:12:13;;;;;;;2.05;0.80;;;;;;;;;;5111008;28;20016;-74
2020/12/26 10:14:39;;;;;;;5.38;1.02;;;;;;;;;;5092957;28;20047;-72
2020/12/26 10:17:05;;;;;;;3.40;0.80;;;;;;;;;;5109775;28;20567;-74
2020/12/26 10:19:31;;;;;;;6.28;1.00;;;;;;;;;;5111492;28;20031;-75
2020/12/26 10:21:57;;;;;;;1.90;0.80;;;;;;;;;;5093391;28;20023;-73
2020/12/26 10:24:23;;;;;;;1.20;0.65;;;;;;;;;;5111418;28;20483;-74
2020/12/26 10:26:49;;;;;;;2.47;0.70;;;;;;;;;;5111571;28;20023;-74
2020/12/26 10:29:15;;;;;;;3.00;0.75;;;;;;;;;;5111463;28;20023;-72
2020/12/26 10:31:41;;;;;;;2.20;0.82;;;;;;;;;;5111589;28;20027;-74
2020/12/26 10:34:07;;;;;;;5.13;1.00;;;;;;;;;;5111590;28;20015;-75
2020/12/26 10:36:33;;;;;;;1.40;0.70;;;;;;;;;;5093228;28;20031;-72
2020/12/26 10:39:00;;;;;;;1.90;0.77;;;;;;;;;;5111288;28;20042;-74
2020/12/26 10:41:26;;;;;;;4.40;0.82;;;;;;;;;;5111604;28;20528;-72
2020/12/26 10:43:52;;;;;;;2.97;0.93;;;;;;;;;;5112152;28;20417;-72
2020/12/26 10:46:18;;;;;;;1.42;0.68;;;;;;;;;;5113900;28;20458;-74
2020/12/26 10:48:44;;;;;;;3.10;1.02;;;;;;;;;;5111840;28;20015;-72
2020/12/26 10:51:10;;;;;;;2.15;1.00;;;;;;;;;;5093134;28;20012;-72
2020/12/26 10:53:36;;;;;;;2.30;0.73;;;;;;;;;;5092905;28;20019;-72
2020/12/26 10:56:03;;;;;;;1.52;0.80;;;;;;;;;;5111179;28;20008;-71
2020/12/26 10:58:29;;;;;;;1.85;0.93;;;;;;;;;;5111238;28;20055;-72
2020/12/26 11:00:55;;;;;;;1.63;0.70;;;;;;;;;;5111428;28;20024;-75
2020/12/26 11:03:21;;;;;;;3.15;0.77;;;;;;;;;;5092711;28;20027;-75
2020/12/26 11:05:49;;;;;;;2.80;1.02;;;;;;;;;;5108441;28;20080;-73
2020/12/26 11:08:15;;;;;;;2.42;0.85;;;;;;;;;;5111220;28;20020;-75
2020/12/26 11:10:41;;;;;;;2.45;0.90;;;;;;;;;;5111133;28;20024;-72
2020/12/26 11:13:08;;;;;;;1.92;0.90;;;;;;;;;;5111301;28;20096;-75
2020/12/26 11:15:34;;;;;;;5.10;0.80;;;;;;;;;;5111018;28;20023;-74
2020/12/26 11:18:00;;;;;;;7.32;1.00;;;;;;;;;;5093110;28;20047;-76
2020/12/26 11:20:26;;;;;;;7.15;0.80;;;;;;;;;;5111593;28;20471;-71
2020/12/26 11:22:52;;;;;;;5.82;0.75;;;;;;;;;;5111266;28;20038;-74
2020/12/26 11:25:18;;;;;;;3.65;0.93;;;;;;;;;;5092717;28;20081;-74
2020/12/26 11:27:44;;;;;;;6.90;0.77;;;;;;;;;;5094740;28;20028;-74
2020/12/26 11:30:10;;;;;;;6.38;0.88;;;;;;;;;;5112039;27;20052;-74
2020/12/26 11:32:37;;;;;;;2.22;0.80;;;;;;;;;;5103667;27;20475;-74
2020/12/26 11:35:03;;;;;;;4.85;0.90;;;;;;;;;;5124836;27;20098;-74
2020/12/26 11:37:31;;;;;;;6.35;0.80;;;;;;;;;;5124651;27;20032;-73
2020/12/26 11:39:57;;;;;;;4.10;0.93;;;;;;;;;;5104659;28;20022;-75
2020/12/26 11:42:23;;;;;;;2.70;0.80;;;;;;;;;;5124503;27;20015;-73
2020/12/26 11:44:50;;;;;;;5.75;0.85;;;;;;;;;;5106307;27;20102;-74
2020/12/26 11:47:16;;;;;;;3.25;0.70;;;;;;;;;;5123051;27;20413;-74
2020/12/26 11:49:42;;;;;;;2.65;1.00;;;;;;;;;;5124581;27;20589;-72
2020/12/26 11:52:08;;;;;;;10.30;1.00;;;;;;;;;;5117887;27;20034;-70
2020/12/26 11:54:34;;;;;;;2.83;0.90;;;;;;;;;;5114227;28;20497;-70
2020/12/26 11:57:00;;;;;;;2.35;0.90;;;;;;;;;;5114160;28;20189;-70
2020/12/26 11:59:26;;;;;;;6.60;0.73;;;;;;;;;;5096011;28;20567;-70
2020/12/26 12:01:55;;;;;;;10.13;0.95;;;;;;;;;;5114124;28;20016;-71
2020/12/26 12:04:22;;;;;;;10.73;1.13;;;;;;;;;;5110555;27;20027;-75
2020/12/26 12:06:48;;;;;;;5.82;1.02;;;;;;;;;;5083943;28;20027;-77
2020/12/26 12:09:14;;;;;;;6.97;1.10;;;;;;;;;;5095116;28;20093;-74
2020/12/26 12:11:40;;;;;;;9.43;2.70;;;;;;;;;;5091149;28;20115;-79
2020/12/26 12:14:07;;;;;;;21.48;6.13;;;;;;;;;;5092442;28;20020;-75
2020/12/26 12:16:34;;;;;;;23.50;6.00;;;;;;;;;;5090980;28;20070;-76
2020/12/26 12:19:01;;;;;;;63.72;7.55;;;;;;;;;;5113007;28;20031;-81
2020/12/26 12:21:27;;;;;;;22.85;5.53;;;;;;;;;;5094084;28;20035;-74
2020/12/26 12:23:53;;;;;;;25.90;5.28;;;;;;;;;;5113065;28;20034;-78
2020/12/26 12:26:20;;;;;;;18.83;4.80;;;;;;;;;;5112902;28;20038;-73
2020/12/26 12:28:46;;;;;;;24.42;4.80;;;;;;;;;;5113380;28;20561;-71
2020/12/26 12:31:12;;;;;;;16.25;3.53;;;;;;;;;;5112638;28;20406;-75
2020/12/26 12:33:39;;;;;;;15.77;3.90;;;;;;;;;;5091464;27;20043;-74
2020/12/26 12:36:05;;;;;;;15.65;3.30;;;;;;;;;;5093086;28;20027;-72
2020/12/26 12:38:31;;;;;;;11.82;3.22;;;;;;;;;;5110728;28;20530;-71
2020/12/26 12:40:57;;;;;;;18.73;3.50;;;;;;;;;;5094751;28;20649;-73
2020/12/26 12:43:23;;;;;;;19.08;3.30;;;;;;;;;;5093755;28;20043;-72
2020/12/26 12:45:49;;;;;;;16.42;3.17;;;;;;;;;;5112786;28;20026;-73
2020/12/26 12:48:15;;;;;;;22.27;3.25;;;;;;;;;;5113178;28;20016;-74
2020/12/26 12:50:41;;;;;;;13.23;2.83;;;;;;;;;;5094875;28;20020;-72
2020/12/26 12:53:07;;;;;;;16.63;2.78;;;;;;;;;;5113021;28;20102;-70
2020/12/26 12:55:33;;;;;;;13.55;3.60;;;;;;;;;;5113143;28;20051;-73
2020/12/26 12:57:59;;;;;;;11.93;2.47;;;;;;;;;;5112870;28;20028;-73
2020/12/26 13:00:25;;;;;;;22.98;3.80;;;;;;;;;;5112243;28;20023;-81
2020/12/26 13:02:51;;;;;;;12.07;3.03;;;;;;;;;;5109676;28;20428;-78
2020/12/26 13:05:17;;;;;;;11.75;2.55;;;;;;;;;;5112981;28;20477;-79
2020/12/26 13:07:43;;;;;;;39.65;3.55;;;;;;;;;;5112551;28;20094;-72
2020/12/26 13:10:09;;;;;;;17.00;2.55;;;;;;;;;;5112604;28;20008;-71
2020/12/26 13:12:36;;;;;;;23.00;2.58;;;;;;;;;;5113021;28;20024;-77
2020/12/26 13:15:02;;;;;;;9.13;2.03;;;;;;;;;;5113680;28;20622;-86
2020/12/26 13:17:28;;;;;;;19.85;2.90;;;;;;;;;;5092384;28;20085;-71
2020/12/26 13:19:54;;;;;;;10.18;2.50;;;;;;;;;;5086290;28;20063;-71
2020/12/26 13:22:20;;;;;;;26.58;2.55;;;;;;;;;;5091966;28;20028;-70
2020/12/26 13:24:46;;;;;;;19.45;2.42;;;;;;;;;;5091098;28;20035;-73
2020/12/26 13:27:12;;;;;;;19.02;1.95;;;;;;;;;;5090972;28;20016;-72
2020/12/26 13:29:38;;;;;;;18.60;3.75;;;;;;;;;;5089919;28;20375;-70
2020/12/26 13:32:04;;;;;;;9.98;2.08;;;;;;;;;;5091932;28;20016;-71
2020/12/26 13:34:30;;;;;;;10.77;1.95;;;;;;;;;;5082779;28;20020;-68
2020/12/26 13:36:56;;;;;;;15.38;1.83;;;;;;;;;;5090329;28;20097;-71
2020/12/26 13:39:22;;;;;;;10.65;1.98;;;;;;;;;;5091522;28;20032;-70
2020/12/26 13:41:52;;;;;;;9.68;2.50;;;;;;;;;;5091632;28;20016;-70
2020/12/26 13:44:18;;;;;;;7.13;1.63;;;;;;;;;;5077531;28;20391;-71
2020/12/26 13:46:45;;;;;;;11.43;1.83;;;;;;;;;;5073462;28;20028;-71
2020/12/26 13:49:11;;;;;;;5.43;2.05;;;;;;;;;;5091535;28;20098;-71
2020/12/26 13:51:37;;;;;;;8.70;1.48;;;;;;;;;;5090607;28;20027;-71
2020/12/26 13:54:03;;;;;;;4.90;1.58;;;;;;;;;;5091387;28;20024;-70
2020/12/26 13:56:29;;;;;;;4.88;1.40;;;;;;;;;;5091130;28;20475;-70
2020/12/26 13:58:56;;;;;;;3.63;1.30;;;;;;;;;;5091180;28;20441;-70
2020/12/26 14:01:24;;;;;;;10.35;2.03;;;;;;;;;;5084644;28;20505;-71
2020/12/26 14:03:50;;;;;;;5.70;1.50;;;;;;;;;;5090956;28;20103;-69
2020/12/26 14:06:16;;;;;;;5.68;1.40;;;;;;;;;;5091267;28;20024;-69
2020/12/26 14:08:42;;;;;;;7.72;1.80;;;;;;;;;;5080282;28;20024;-70
2020/12/26 14:11:09;;;;;;;5.40;1.67;;;;;;;;;;5089899;28;20020;-69
2020/12/26 14:13:36;;;;;;;3.15;1.55;;;;;;;;;;5089892;28;20031;-72
2020/12/26 14:16:03;;;;;;;3.85;1.50;;;;;;;;;;5092145;28;20069;-70
2020/12/26 14:18:29;;;;;;;5.78;1.83;;;;;;;;;;5096851;28;20037;-70
2020/12/26 14:20:57;;;;;;;4.85;1.52;;;;;;;;;;5092403;28;20591;-71
2020/12/26 14:23:23;;;;;;;6.70;1.25;;;;;;;;;;5111614;28;20099;-70
2020/12/26 14:25:49;;;;;;;5.93;1.58;;;;;;;;;;5092673;28;20056;-70
2020/12/26 14:28:15;;;;;;;6.18;1.50;;;;;;;;;;5093007;28;20023;-69
2020/12/26 14:30:41;;;;;;;6.18;1.70;;;;;;;;;;5111492;28;20016;-69
2020/12/26 14:33:07;;;;;;;3.25;1.60;;;;;;;;;;5111230;28;20110;-72
2020/12/26 14:35:33;;;;;;;5.03;1.70;;;;;;;;;;5104654;27;20050;-69
2020/12/26 14:37:59;;;;;;;4.18;1.58;;;;;;;;;;5110693;28;20052;-70
2020/12/26 14:40:25;;;;;;;16.35;2.35;;;;;;;;;;5093176;28;20537;-74